createdAt,value
2022-09-30T00:01:32.683Z,3.90
2022-09-30T00:04:02.896Z,3.83
2022-09-30T00:06:32.045Z,3.77
2022-09-30T00:09:00.357Z,3.63
2022-09-30T00:11:29.855Z,3.40
2022-09-30T00:13:58.829Z,3.30
2022-09-30T00:16:29.627Z,3.20
2022-09-30T00:18:58.581Z,3.10
2022-09-30T00:21:28.566Z,3.43
2022-09-30T00:23:57.005Z,3.40
2022-09-30T00:26:25.500Z,3.43
2022-09-30T00:28:55.102Z,3.07
2022-09-30T00:31:23.963Z,3.40
2022-09-30T00:34:07.660Z,3.30
2022-09-30T00:36:39.700Z,3.10
2022-09-30T00:39:09.130Z,3.30
2022-09-30T00:41:37.489Z,3.40
2022-09-30T00:44:38.405Z,3.10
2022-09-30T00:47:06.910Z,3.30
2022-09-30T00:49:34.806Z,3.23
2022-09-30T00:52:04.008Z,3.27
2022-09-30T00:54:32.727Z,3.53
2022-09-30T00:57:03.760Z,3.40
2022-09-30T00:59:36.923Z,3.47
2022-09-30T01:02:06.509Z,2.90
2022-09-30T01:04:35.992Z,3.17
2022-09-30T01:07:07.947Z,3.63
2022-09-30T01:09:37.322Z,3.43
2022-09-30T01:12:06.927Z,3.50
2022-09-30T01:14:35.748Z,3.67
2022-09-30T01:17:10.635Z,3.70
2022-09-30T01:20:07.702Z,3.60
2022-09-30T01:22:46.292Z,3.70
2022-09-30T01:25:32.429Z,3.40
2022-09-30T01:28:29.203Z,3.50
2022-09-30T01:31:12.332Z,3.63
2022-09-30T01:33:47.569Z,3.90
2022-09-30T01:36:27.952Z,3.23
2022-09-30T01:39:04.368Z,3.77
2022-09-30T01:41:42.678Z,3.50
2022-09-30T01:44:18.384Z,3.60
2022-09-30T01:46:54.091Z,3.60
2022-09-30T01:49:28.611Z,3.70
2022-09-30T01:52:02.895Z,3.20
2022-09-30T01:54:39.076Z,3.97
2022-09-30T01:57:10.818Z,4.80
2022-09-30T01:59:45.763Z,4.20
2022-09-30T02:02:20.098Z,3.93
2022-09-30T02:04:53.254Z,4.20
2022-09-30T02:07:27.126Z,3.80
2022-09-30T02:10:01.413Z,3.83
2022-09-30T02:12:34.222Z,3.80
2022-09-30T02:15:07.575Z,3.60
2022-09-30T02:17:43.127Z,4.17
2022-09-30T02:20:15.509Z,3.97
2022-09-30T02:22:47.699Z,4.10
2022-09-30T02:25:20.489Z,3.70
2022-09-30T02:27:52.765Z,4.00
2022-09-30T02:30:20.848Z,4.50
2022-09-30T02:32:53.784Z,3.80
2022-09-30T02:35:27.732Z,3.97
2022-09-30T02:37:59.647Z,3.63
2022-09-30T02:40:32.720Z,3.90
2022-09-30T02:43:00.521Z,4.07
2022-09-30T02:45:31.346Z,3.77
2022-09-30T02:48:14.891Z,3.97
2022-09-30T02:50:49.864Z,4.43
2022-09-30T02:53:26.754Z,4.10
2022-09-30T02:56:13.839Z,4.10
2022-09-30T02:58:43.322Z,4.77
2022-09-30T03:01:13.651Z,4.37
2022-09-30T03:03:46.012Z,4.60
2022-09-30T03:06:13.901Z,5.10
2022-09-30T03:08:41.820Z,4.97
2022-09-30T03:11:15.846Z,5.07
2022-09-30T03:14:09.076Z,5.50
2022-09-30T03:16:51.718Z,5.43
2022-09-30T03:19:37.991Z,6.03
2022-09-30T03:22:27.595Z,5.33
2022-09-30T03:25:12.375Z,5.57
2022-09-30T03:27:49.930Z,5.63
2022-09-30T03:30:24.220Z,5.63
2022-09-30T03:33:03.008Z,5.57
2022-09-30T03:35:38.958Z,5.60
2022-09-30T03:38:16.299Z,5.60
2022-09-30T03:40:52.521Z,5.73
2022-09-30T03:43:25.611Z,5.90
2022-09-30T03:45:59.157Z,6.40
2022-09-30T03:48:30.160Z,6.03
2022-09-30T03:51:01.349Z,6.20
2022-09-30T03:53:29.452Z,6.70
2022-09-30T03:55:57.426Z,6.93
2022-09-30T03:58:25.253Z,6.67
2022-09-30T04:00:54.565Z,6.77
2022-09-30T04:03:23.309Z,7.23
2022-09-30T04:05:51.104Z,6.30
2022-09-30T04:08:20.208Z,6.80
2022-09-30T04:10:48.011Z,6.70
2022-09-30T04:13:15.767Z,6.83
2022-09-30T04:15:43.546Z,7.50
2022-09-30T04:18:11.292Z,7.57
2022-09-30T04:20:40.383Z,8.03
2022-09-30T04:23:08.120Z,8.13
2022-09-30T04:25:37.231Z,9.47
2022-09-30T04:28:05.313Z,8.90
2022-09-30T04:30:33.794Z,8.50
2022-09-30T04:33:02.859Z,9.27
2022-09-30T04:35:30.636Z,9.40
2022-09-30T04:37:58.464Z,9.00
2022-09-30T04:40:26.404Z,9.30
2022-09-30T04:42:58.110Z,10.13
2022-09-30T04:45:26.448Z,9.63
2022-09-30T04:47:54.497Z,9.90
2022-09-30T04:50:22.485Z,9.77
2022-09-30T04:52:50.256Z,9.83
2022-09-30T04:55:18.312Z,9.67
2022-09-30T04:57:46.551Z,9.77
2022-09-30T05:00:15.851Z,9.80
2022-09-30T05:02:46.072Z,10.40
2022-09-30T05:05:14.063Z,9.93
2022-09-30T05:07:41.818Z,10.43
2022-09-30T05:10:11.076Z,9.67
2022-09-30T05:12:40.935Z,10.87
2022-09-30T05:15:09.743Z,10.63
2022-09-30T05:17:38.834Z,10.83
2022-09-30T05:20:10.758Z,11.33
2022-09-30T05:22:39.262Z,10.27
2022-09-30T05:25:08.327Z,10.17
2022-09-30T05:27:36.293Z,10.30
2022-09-30T05:30:06.661Z,10.80
2022-09-30T05:32:34.730Z,10.30
2022-09-30T05:35:04.481Z,10.90
2022-09-30T05:37:32.423Z,10.70
2022-09-30T05:40:01.060Z,11.63
2022-09-30T05:42:28.915Z,11.27
2022-09-30T05:44:56.757Z,10.80
2022-09-30T05:47:24.902Z,10.80
2022-09-30T05:49:55.966Z,10.83
2022-09-30T05:52:25.445Z,11.40
2022-09-30T05:54:53.841Z,12.00
2022-09-30T05:57:21.623Z,12.20
2022-09-30T05:59:49.354Z,11.63
2022-09-30T06:02:17.231Z,13.83
2022-09-30T06:04:45.097Z,12.77
2022-09-30T06:07:13.757Z,11.63
2022-09-30T06:09:42.940Z,11.43
2022-09-30T06:12:10.932Z,11.30
2022-09-30T06:14:38.741Z,11.93
2022-09-30T06:17:06.555Z,11.87
2022-09-30T06:19:34.348Z,12.00
2022-09-30T06:22:02.119Z,11.80
2022-09-30T06:24:30.927Z,11.93
2022-09-30T06:27:00.248Z,12.17
2022-09-30T06:29:27.974Z,10.97
2022-09-30T06:31:55.829Z,11.73
2022-09-30T06:34:24.020Z,10.43
2022-09-30T06:36:51.791Z,10.30
2022-09-30T06:39:19.563Z,9.17
2022-09-30T06:41:47.791Z,9.47
2022-09-30T06:44:16.884Z,8.80
2022-09-30T06:46:53.254Z,8.63
2022-09-30T06:49:22.341Z,8.37
2022-09-30T06:51:51.165Z,9.00
2022-09-30T06:54:20.642Z,7.97
2022-09-30T06:56:48.524Z,7.80
2022-09-30T06:59:17.898Z,7.97
2022-09-30T07:01:46.211Z,7.80
2022-09-30T07:04:14.948Z,8.20
2022-09-30T07:06:42.713Z,8.37
2022-09-30T07:09:11.974Z,8.40
2022-09-30T07:11:40.095Z,8.10
2022-09-30T07:14:08.710Z,8.87
2022-09-30T07:16:38.535Z,8.50
2022-09-30T07:19:10.061Z,9.20
2022-09-30T07:21:37.891Z,9.10
2022-09-30T07:24:05.930Z,8.90
2022-09-30T07:26:34.013Z,8.43
2022-09-30T07:29:02.383Z,9.50
2022-09-30T07:31:35.023Z,9.00
2022-09-30T07:34:06.901Z,8.90
2022-09-30T07:36:35.601Z,8.87
2022-09-30T07:39:06.821Z,8.97
2022-09-30T07:41:37.684Z,8.77
2022-09-30T07:44:08.135Z,8.87
2022-09-30T07:46:38.915Z,8.33
2022-09-30T07:49:12.814Z,8.43
2022-09-30T07:51:44.031Z,7.53
2022-09-30T07:54:14.725Z,7.93
2022-09-30T07:57:09.751Z,7.97
2022-09-30T07:59:33.662Z,8.63
2022-09-30T08:02:01.572Z,12.87
2022-09-30T08:04:30.931Z,10.17
2022-09-30T08:07:00.888Z,10.67
2022-09-30T08:09:30.819Z,8.90
2022-09-30T08:11:58.845Z,8.30
2022-09-30T08:14:28.119Z,8.70
2022-09-30T08:16:58.250Z,8.93
2022-09-30T08:19:27.108Z,8.10
2022-09-30T08:21:56.813Z,7.97
2022-09-30T08:24:25.096Z,7.03
2022-09-30T08:26:53.384Z,7.03
2022-09-30T08:29:49.941Z,6.40
2022-09-30T08:32:17.717Z,6.47
2022-09-30T08:34:46.721Z,5.87
2022-09-30T08:37:19.593Z,5.63
2022-09-30T08:39:49.881Z,4.93
2022-09-30T08:42:43.755Z,4.73
2022-09-30T08:45:23.163Z,4.27
2022-09-30T08:48:02.541Z,5.03
2022-09-30T08:50:37.072Z,4.10
2022-09-30T08:53:12.457Z,3.33
2022-09-30T08:55:42.956Z,2.93
2022-09-30T08:58:21.427Z,2.50
2022-09-30T09:00:51.302Z,2.70
2022-09-30T09:03:20.437Z,2.90
2022-09-30T09:05:56.639Z,2.87
2022-09-30T09:08:35.751Z,2.67
2022-09-30T09:11:09.366Z,3.20
2022-09-30T09:13:47.453Z,2.07
2022-09-30T09:16:22.854Z,1.90
2022-09-30T09:18:59.144Z,1.77
2022-09-30T09:21:40.265Z,1.80
2022-09-30T09:24:15.525Z,2.60
2022-09-30T09:26:43.275Z,2.40
2022-09-30T09:29:25.524Z,2.70
2022-09-30T09:31:54.697Z,3.10
2022-09-30T09:34:25.472Z,2.23
2022-09-30T09:37:03.733Z,1.93
2022-09-30T09:40:07.644Z,1.50
2022-09-30T09:42:50.525Z,1.37
2022-09-30T09:45:27.936Z,1.50
2022-09-30T09:47:57.500Z,1.70
2022-09-30T09:50:32.571Z,1.20
2022-09-30T09:53:17.678Z,2.40
2022-09-30T09:55:47.443Z,2.60
2022-09-30T09:58:17.270Z,1.07
2022-09-30T10:01:06.324Z,1.00
2022-09-30T10:03:37.413Z,1.50
2022-09-30T10:06:08.987Z,1.13
2022-09-30T10:08:39.132Z,1.30
2022-09-30T10:11:21.268Z,1.20
2022-09-30T10:13:50.970Z,1.00
2022-09-30T10:16:30.930Z,1.20
2022-09-30T10:18:59.883Z,1.30
2022-09-30T10:21:29.596Z,1.47
2022-09-30T10:23:59.811Z,1.30
2022-09-30T10:26:30.244Z,1.20
2022-09-30T10:29:00.861Z,1.40
2022-09-30T10:31:31.027Z,1.30
2022-09-30T10:34:05.265Z,1.40
2022-09-30T10:36:36.546Z,1.40
2022-09-30T10:39:08.353Z,1.40
2022-09-30T10:41:39.207Z,1.60
2022-09-30T10:44:13.719Z,2.10
2022-09-30T10:46:43.223Z,2.30
2022-09-30T10:49:25.525Z,2.60
2022-09-30T10:51:53.700Z,2.67
2022-09-30T10:54:44.676Z,2.60
2022-09-30T10:57:20.945Z,2.23
2022-09-30T10:59:49.986Z,2.53
2022-09-30T11:02:27.317Z,2.20
2022-09-30T11:05:02.845Z,2.43
2022-09-30T11:07:35.923Z,7.70
2022-09-30T11:10:09.639Z,2.30
2022-09-30T11:12:45.541Z,2.70
2022-09-30T11:15:20.948Z,2.13
2022-09-30T11:17:54.769Z,2.40
2022-09-30T11:20:26.082Z,3.27
2022-09-30T11:22:58.401Z,2.40
2022-09-30T11:25:33.791Z,2.83
2022-09-30T11:28:21.753Z,2.40
2022-09-30T11:30:58.427Z,2.20
2022-09-30T11:33:42.394Z,35.87
2022-09-30T11:36:22.348Z,4.93
2022-09-30T11:39:30.676Z,2.30
2022-09-30T11:42:07.464Z,2.07
2022-09-30T11:44:41.230Z,26.17
2022-09-30T11:47:29.724Z,3.43
2022-09-30T11:50:23.633Z,1.80
2022-09-30T11:53:01.365Z,2.50
2022-09-30T11:55:39.460Z,2.10
2022-09-30T11:58:36.268Z,2.70
2022-09-30T12:01:08.622Z,2.40
2022-09-30T12:03:41.170Z,2.27
2022-09-30T12:06:15.457Z,3.00
2022-09-30T12:08:50.144Z,3.10
2022-09-30T12:11:23.146Z,3.27
2022-09-30T12:13:55.277Z,3.60
2022-09-30T12:16:27.250Z,3.30
2022-09-30T12:19:01.809Z,3.07
2022-09-30T12:21:34.800Z,3.33
2022-09-30T12:24:11.410Z,3.33
2022-09-30T12:26:41.318Z,2.93
2022-09-30T12:29:34.188Z,2.80
2022-09-30T12:32:23.460Z,2.50
2022-09-30T12:35:03.286Z,2.60
2022-09-30T12:37:45.688Z,2.60
2022-09-30T12:40:39.592Z,2.13
2022-09-30T12:43:27.594Z,2.20
2022-09-30T12:46:10.634Z,2.00
2022-09-30T12:48:44.520Z,2.60
2022-09-30T12:51:23.272Z,2.40
2022-09-30T12:53:55.802Z,2.00
2022-09-30T12:56:28.702Z,2.10
2022-09-30T12:59:00.381Z,1.70
2022-09-30T13:01:30.127Z,1.70
2022-09-30T13:04:19.165Z,2.20
2022-09-30T13:07:08.142Z,1.40
2022-09-30T13:09:37.751Z,1.40
2022-09-30T13:12:25.306Z,1.30
2022-09-30T13:15:23.918Z,1.30
2022-09-30T13:17:53.021Z,1.40
2022-09-30T13:20:55.013Z,1.20
2022-09-30T13:23:37.113Z,1.73
2022-09-30T13:26:07.099Z,1.60
2022-09-30T13:28:39.360Z,3.37
2022-09-30T13:31:19.092Z,1.00
2022-09-30T13:34:08.756Z,1.20
2022-09-30T13:36:42.880Z,1.20
2022-09-30T13:39:22.204Z,1.50
2022-09-30T13:42:02.167Z,1.57
2022-09-30T13:44:38.529Z,1.53
2022-09-30T13:47:16.497Z,1.90
2022-09-30T13:49:52.673Z,2.33
2022-09-30T13:52:24.532Z,1.90
2022-09-30T13:54:54.792Z,2.00
2022-09-30T13:57:28.914Z,1.90
2022-09-30T14:00:06.692Z,2.00
2022-09-30T14:03:06.852Z,2.53
2022-09-30T14:05:54.228Z,1.93
2022-09-30T14:08:46.191Z,2.20
2022-09-30T14:11:26.859Z,2.30
2022-09-30T14:14:07.963Z,2.47
2022-09-30T14:17:08.852Z,3.67
2022-09-30T14:20:00.101Z,3.13
2022-09-30T14:22:30.411Z,3.00
2022-09-30T14:24:59.170Z,2.70
2022-09-30T14:27:41.926Z,2.53
2022-09-30T14:30:14.675Z,3.00
2022-09-30T14:32:49.317Z,2.60
2022-09-30T14:38:15.592Z,3.10
2022-09-30T14:40:51.682Z,3.30
2022-09-30T14:43:23.647Z,3.30
2022-09-30T14:45:55.962Z,4.10
2022-09-30T14:48:28.046Z,4.13
2022-09-30T14:51:00.718Z,3.40
2022-09-30T14:53:31.799Z,3.50
2022-09-30T14:56:00.873Z,3.53
2022-09-30T14:58:30.719Z,3.30
2022-09-30T15:01:07.627Z,4.00
2022-09-30T15:03:37.800Z,3.93
2022-09-30T15:06:07.503Z,3.60
2022-09-30T15:08:36.811Z,3.93
2022-09-30T15:11:04.572Z,3.70
2022-09-30T15:13:32.663Z,4.20
2022-09-30T15:16:00.718Z,4.23
2022-09-30T15:18:33.267Z,3.80
2022-09-30T15:21:06.126Z,4.00
2022-09-30T15:23:37.499Z,4.00
2022-09-30T15:26:06.651Z,4.00
2022-09-30T15:28:35.088Z,4.47
2022-09-30T15:31:02.930Z,4.60
2022-09-30T15:33:32.407Z,4.53
2022-09-30T15:36:08.022Z,4.10
2022-09-30T15:38:38.531Z,3.80
2022-09-30T15:41:08.284Z,3.30
2022-09-30T15:43:39.571Z,3.67
2022-09-30T15:46:27.316Z,3.53
2022-09-30T15:48:57.043Z,4.07
2022-09-30T15:51:40.349Z,3.37
2022-09-30T15:54:32.136Z,3.07
2022-09-30T15:57:15.949Z,3.30
2022-09-30T16:00:00.164Z,3.13
2022-09-30T16:02:29.661Z,3.03
2022-09-30T16:04:59.170Z,3.20
2022-09-30T16:07:28.327Z,3.00
2022-09-30T16:09:59.268Z,2.63
2022-09-30T16:12:30.815Z,2.97
2022-09-30T16:15:07.434Z,3.40
2022-09-30T16:17:37.701Z,2.97
2022-09-30T16:20:09.147Z,3.13
2022-09-30T16:22:54.823Z,2.93
2022-09-30T16:25:28.033Z,2.80
2022-09-30T16:27:58.598Z,2.90
2022-09-30T16:30:26.983Z,2.60
2022-09-30T16:32:59.109Z,2.57
2022-09-30T16:35:28.931Z,2.30
2022-09-30T16:38:01.508Z,2.30
2022-09-30T16:40:32.244Z,2.47
2022-09-30T16:43:03.209Z,3.03
2022-09-30T16:45:33.394Z,2.60
2022-09-30T16:48:02.432Z,2.10
2022-09-30T16:50:35.875Z,2.20
2022-09-30T16:53:03.638Z,1.70
2022-09-30T16:55:33.104Z,2.40
2022-09-30T16:58:00.891Z,2.07
2022-09-30T17:00:29.618Z,2.20
2022-09-30T17:02:57.407Z,2.33
2022-09-30T17:05:27.245Z,2.30
2022-09-30T17:07:56.647Z,2.13
2022-09-30T17:10:28.872Z,2.33
2022-09-30T17:13:00.191Z,2.37
2022-09-30T17:15:28.813Z,2.10
2022-09-30T17:17:56.599Z,2.40
2022-09-30T17:20:24.827Z,2.40
2022-09-30T17:22:52.969Z,2.73
2022-09-30T17:25:21.172Z,2.40
2022-09-30T17:27:49.925Z,2.50
2022-09-30T17:30:20.346Z,2.73
2022-09-30T17:32:48.826Z,2.67
2022-09-30T17:35:16.732Z,3.00
2022-09-30T17:37:46.452Z,2.60
2022-09-30T17:40:32.206Z,2.67
2022-09-30T17:43:10.837Z,2.83
2022-09-30T17:45:42.247Z,2.67
2022-09-30T17:48:10.772Z,2.60
2022-09-30T17:50:39.495Z,2.50
2022-09-30T17:53:07.647Z,2.40
2022-09-30T17:55:35.790Z,2.57
2022-09-30T17:58:03.896Z,2.40
2022-09-30T18:00:32.247Z,2.73
2022-09-30T18:03:01.323Z,2.83
2022-09-30T18:05:29.059Z,2.60
2022-09-30T18:07:57.288Z,2.40
2022-09-30T18:10:25.400Z,2.40
2022-09-30T18:12:54.148Z,2.40
2022-09-30T18:15:22.936Z,2.50
2022-09-30T18:17:50.727Z,2.40
2022-09-30T18:20:22.053Z,2.67
2022-09-30T18:22:52.607Z,2.33
2022-09-30T18:25:23.622Z,2.40
2022-09-30T18:27:52.833Z,2.27
2022-09-30T18:30:21.602Z,2.10
2022-09-30T18:32:50.414Z,2.00
2022-09-30T18:35:22.128Z,2.70
2022-09-30T18:37:50.764Z,1.97
2022-09-30T18:40:19.303Z,2.00
2022-09-30T18:42:47.937Z,2.17
2022-09-30T18:45:16.099Z,2.00
2022-09-30T18:47:45.639Z,2.00
2022-09-30T18:50:14.793Z,1.80
2022-09-30T18:52:43.957Z,1.90
2022-09-30T18:55:11.708Z,2.10
2022-09-30T18:57:41.585Z,2.20
2022-09-30T19:00:10.899Z,2.00
2022-09-30T19:02:39.954Z,2.10
2022-09-30T19:05:08.310Z,2.13
2022-09-30T19:07:36.073Z,2.23
2022-09-30T19:10:05.948Z,1.93
2022-09-30T19:12:35.683Z,2.00
2022-09-30T19:15:03.444Z,2.10
2022-09-30T19:17:32.920Z,2.00
2022-09-30T19:20:00.842Z,2.13
2022-09-30T19:22:29.048Z,2.47
2022-09-30T19:24:56.978Z,2.10
2022-09-30T19:27:27.015Z,2.20
2022-09-30T19:29:59.268Z,2.10
2022-09-30T19:32:28.887Z,1.83
2022-09-30T19:35:05.136Z,2.33
2022-09-30T19:37:34.235Z,2.00
2022-09-30T19:40:13.943Z,2.10
2022-09-30T19:42:48.228Z,2.00
2022-09-30T19:45:17.313Z,1.97
2022-09-30T19:47:45.724Z,2.07
2022-09-30T19:50:13.471Z,1.83
2022-09-30T19:52:52.836Z,1.93
2022-09-30T19:55:24.323Z,2.00
2022-09-30T19:57:53.419Z,2.00
2022-09-30T20:00:21.211Z,2.23
2022-09-30T20:02:50.128Z,2.17
2022-09-30T20:05:18.269Z,1.93
2022-09-30T20:07:46.055Z,2.10
2022-09-30T20:10:14.079Z,2.13
2022-09-30T20:12:42.617Z,1.90
2022-09-30T20:15:29.680Z,1.83
2022-09-30T20:17:57.452Z,2.10
2022-09-30T20:20:38.289Z,2.20
2022-09-30T20:23:06.074Z,2.10
2022-09-30T20:25:36.157Z,2.00
2022-09-30T20:28:04.995Z,2.40
2022-09-30T20:30:35.268Z,2.20
2022-09-30T20:33:02.971Z,2.10
2022-09-30T20:35:30.701Z,2.30
2022-09-30T20:37:58.433Z,2.20
2022-09-30T20:40:26.297Z,2.10
2022-09-30T20:42:56.984Z,2.30
2022-09-30T20:45:27.990Z,2.60
2022-09-30T20:47:57.317Z,2.43
2022-09-30T20:50:35.728Z,2.43
2022-09-30T20:53:09.053Z,2.13
2022-09-30T20:55:38.561Z,2.27
2022-09-30T20:58:07.596Z,2.10
2022-09-30T21:00:38.243Z,2.20
2022-09-30T21:03:09.307Z,2.17
2022-09-30T21:05:37.227Z,2.20
2022-09-30T21:08:07.205Z,2.30
2022-09-30T21:10:36.245Z,2.30
2022-09-30T21:13:10.066Z,2.63
2022-09-30T21:15:37.863Z,2.10
2022-09-30T21:18:07.332Z,2.80
2022-09-30T21:20:35.132Z,2.43
2022-09-30T21:23:03.112Z,3.13
2022-09-30T21:25:32.415Z,3.37
2022-09-30T21:28:00.294Z,3.37
2022-09-30T21:30:28.884Z,4.10
2022-09-30T21:32:56.619Z,3.90
2022-09-30T21:35:25.837Z,3.00
2022-09-30T21:37:53.828Z,3.00
2022-09-30T21:40:21.548Z,2.80
2022-09-30T21:42:49.302Z,2.67
2022-09-30T21:45:18.274Z,2.80
2022-09-30T21:47:45.997Z,2.83
2022-09-30T21:50:13.748Z,2.87
2022-09-30T21:52:43.058Z,2.80
2022-09-30T21:55:13.256Z,2.60
2022-09-30T21:57:41.049Z,3.03
2022-09-30T22:00:10.029Z,2.60
2022-09-30T22:02:37.795Z,2.80
2022-09-30T22:05:06.089Z,3.10
2022-09-30T22:07:33.888Z,3.10
2022-09-30T22:10:03.177Z,3.20
2022-09-30T22:12:33.535Z,3.83
2022-09-30T22:15:01.260Z,3.80
2022-09-30T22:17:28.994Z,4.20
2022-09-30T22:19:57.745Z,4.00
2022-09-30T22:22:25.824Z,3.83
2022-09-30T22:24:54.241Z,4.20
2022-09-30T22:27:23.337Z,4.73
2022-09-30T22:29:51.227Z,4.10
2022-09-30T22:32:19.039Z,4.17
2022-09-30T22:35:04.396Z,4.40
2022-09-30T22:38:01.233Z,3.97
2022-09-30T22:40:29.029Z,3.80
2022-09-30T22:42:58.216Z,3.70
2022-09-30T22:45:26.327Z,4.00
2022-09-30T22:47:55.222Z,4.50
2022-09-30T22:50:25.035Z,3.80
2022-09-30T22:52:52.775Z,3.77
2022-09-30T22:55:20.730Z,3.63
2022-09-30T22:57:48.516Z,4.00
2022-09-30T23:00:17.834Z,4.10
2022-09-30T23:02:45.604Z,4.07
2022-09-30T23:05:15.267Z,4.33
2022-09-30T23:07:43.032Z,3.87
2022-09-30T23:10:11.262Z,4.00
2022-09-30T23:12:39.040Z,4.50
2022-09-30T23:15:08.311Z,4.53
2022-09-30T23:17:37.609Z,4.40
2022-09-30T23:20:05.992Z,4.50
2022-09-30T23:22:33.770Z,4.27
2022-09-30T23:25:02.679Z,4.27
2022-09-30T23:27:30.436Z,4.03
2022-09-30T23:29:58.190Z,4.30
2022-09-30T23:32:25.963Z,4.10
2022-09-30T23:34:55.112Z,4.23
2022-09-30T23:37:22.869Z,4.07
2022-09-30T23:39:50.672Z,4.20
2022-09-30T23:42:18.768Z,4.17
2022-09-30T23:44:46.497Z,4.03
2022-09-30T23:47:19.999Z,4.30
2022-09-30T23:49:47.823Z,3.93
2022-09-30T23:52:17.502Z,3.97
2022-09-30T23:54:45.259Z,3.60
2022-09-30T23:57:13.104Z,3.90
2022-09-30T23:59:40.874Z,3.53
